Terminal Aerodrome Forecast
Issued by NWS

Home | Current Version | Previous Version | Graphics & Text | Print | Product List | Glossary On
Versions: 1 2 3 4 5 6 7 8 9 10 11 12 13 14 15 16 17 18 19
000
FTUS43 KDLH 231135
TAFBRD
TAF
KBRD 231135Z 2312/2412 33003KT 6SM BR SKC
      TEMPO 2312/2313 1 1/2SM BR SCT003
     FM231400 34005KT P6SM SCT025
     FM232000 34006KT P6SM SCT035 BKN090
     FM240100 03003KT P6SM VCSH SCT040 BKN070
      TEMPO 2402/2405 6SM -SHRA BKN040
     FM241000 VRB02KT 5SM BR SCT040=

USA.gov is the U.S. government's official web portal to all federal, state and local government web resources and services.